Time;durP1;ratioP1;P1;durP2;ratioP2;P2;SDS_P1;SDS_P2;PMS_P1;PMS_P2;Temp;Humidity;BMP_temperature;BMP_pressure;BME280_temperature;BME280_humidity;BME280_pressure;Samples;Min_cycle;Max_cycle;Signal;HPM_P1;HPM_P2
2023/12/11 00:01:48;;;;;;;40.77;14.43;;;;;;;6.89;66.71;99177.66;5031904;28;20633;-90
2023/12/11 00:04:15;;;;;;;38.53;14.53;;;;;;;6.90;66.35;99171.50;5030771;28;20656;-90
2023/12/11 00:06:41;;;;;;;41.67;14.53;;;;;;;6.89;66.81;99172.44;5031384;28;20265;-89
2023/12/11 00:09:09;;;;;;;42.50;13.23;;;;;;;6.91;66.39;99180.19;5030431;28;20207;-90
2023/12/11 00:11:36;;;;;;;39.80;14.10;;;;;;;6.91;66.35;99182.78;5030589;28;20649;-89
2023/12/11 00:14:03;;;;;;;33.57;13.23;;;;;;;6.98;65.70;99176.44;5031179;28;20190;-90
2023/12/11 00:16:29;;;;;;;31.60;13.07;;;;;;;7.05;66.20;99172.72;5033078;28;20215;-89
2023/12/11 00:18:57;;;;;;;32.00;13.23;;;;;;;7.10;65.68;99170.78;5050412;28;20173;-90
2023/12/11 00:21:24;;;;;;;34.23;13.73;;;;;;;7.02;65.65;99172.81;5051199;28;20178;-90
2023/12/11 00:23:50;;;;;;;34.37;13.07;;;;;;;7.02;65.56;99172.81;5036738;28;20190;-90
2023/12/11 00:26:17;;;;;;;37.20;14.40;;;;;;;7.06;65.62;99171.78;5010589;28;20281;-90
2023/12/11 00:28:47;;;;;;;30.10;12.83;;;;;;;7.07;66.16;99176.09;5010430;28;20210;-90
2023/12/11 00:31:14;;;;;;;33.20;12.90;;;;;;;7.06;65.78;99184.81;5030218;28;20214;-89
2023/12/11 00:33:41;;;;;;;34.07;13.83;;;;;;;7.10;65.87;99183.81;5031361;28;20197;-89
2023/12/11 00:36:07;;;;;;;27.73;11.80;;;;;;;7.14;65.81;99195.81;5029853;28;20648;-89
2023/12/11 00:38:34;;;;;;;38.80;14.37;;;;;;;7.15;65.53;99203.59;5030150;28;20216;-89
2023/12/11 00:41:01;;;;;;;39.07;14.63;;;;;;;7.17;65.39;99209.59;5019212;28;20214;-90
2023/12/11 00:43:28;;;;;;;35.43;13.70;;;;;;;7.22;65.29;99212.00;5011576;28;20179;-91
2023/12/11 00:45:55;;;;;;;45.10;15.77;;;;;;;7.27;65.40;99207.47;5010463;28;20270;-90
2023/12/11 00:48:20;;;;;;;36.23;12.93;;;;;;;7.25;65.26;99211.91;5029306;28;20206;-90
2023/12/11 00:50:46;;;;;;;39.63;12.37;;;;;;;7.20;64.79;99219.03;5029934;28;20194;-91
2023/12/11 00:53:11;;;;;;;35.97;13.00;;;;;;;7.13;64.80;99217.56;5030550;28;20207;-90
2023/12/11 00:55:38;;;;;;;32.83;13.50;;;;;;;7.08;65.03;99216.88;5029742;28;20216;-90
2023/12/11 00:58:05;;;;;;;38.17;14.17;;;;;;;7.04;64.68;99215.31;5030673;28;20183;-90
2023/12/11 01:00:30;;;;;;;36.93;13.07;;;;;;;6.97;64.44;99216.44;5030527;28;20269;-90
2023/12/11 01:02:57;;;;;;;33.00;11.83;;;;;;;6.88;64.94;99216.75;5030659;28;20253;-91
2023/12/11 01:05:23;;;;;;;37.03;12.50;;;;;;;6.84;65.34;99215.19;5029395;28;20182;-91
2023/12/11 01:07:49;;;;;;;28.40;12.60;;;;;;;6.86;65.43;99218.59;5029893;28;20198;-90
2023/12/11 01:10:15;;;;;;;37.67;13.83;;;;;;;6.83;65.74;99224.75;5030401;28;20190;-90
2023/12/11 01:12:42;;;;;;;38.00;13.27;;;;;;;6.75;66.38;99221.56;5029575;28;20679;-91
2023/12/11 01:15:09;;;;;;;31.83;11.73;;;;;;;6.78;66.05;99211.91;5029692;28;20626;-90
2023/12/11 01:17:35;;;;;;;36.87;14.03;;;;;;;6.70;65.92;99208.72;5030066;28;20205;-89
2023/12/11 01:20:02;;;;;;;39.27;15.93;;;;;;;6.72;66.28;99201.69;5030625;28;20221;-90
2023/12/11 01:22:29;;;;;;;36.33;14.50;;;;;;;6.76;65.95;99205.06;5029657;28;20197;-90
2023/12/11 01:24:56;;;;;;;38.20;13.17;;;;;;;6.69;65.97;99204.41;5030215;28;20226;-90
2023/12/11 01:27:22;;;;;;;35.27;13.10;;;;;;;6.60;66.60;99209.09;5030871;28;20202;-89
2023/12/11 01:29:49;;;;;;;30.40;13.00;;;;;;;6.52;66.91;99204.16;5014560;28;20187;-90
2023/12/11 01:32:16;;;;;;;32.07;15.70;;;;;;;6.56;67.27;99208.34;5009637;28;20179;-90
2023/12/11 01:34:43;;;;;;;36.93;16.03;;;;;;;6.45;67.95;99196.59;5010542;28;20179;-90
2023/12/11 01:37:09;;;;;;;45.17;14.43;;;;;;;6.38;67.83;99201.19;5010509;28;20625;-90
2023/12/11 01:39:36;;;;;;;39.63;13.53;;;;;;;6.34;68.08;99199.56;5009607;28;20195;-90
2023/12/11 01:42:02;;;;;;;37.37;13.73;;;;;;;6.19;69.46;99192.28;5016596;28;20182;-90
2023/12/11 01:44:30;;;;;;;39.87;12.90;;;;;;;6.18;69.16;99193.22;5029331;28;20189;-90
2023/12/11 01:46:57;;;;;;;44.10;13.77;;;;;;;6.24;69.66;99187.78;5029179;28;20193;-89
2023/12/11 01:49:23;;;;;;;32.87;14.60;;;;;;;6.32;69.40;99184.91;5039828;28;20258;-91
2023/12/11 01:51:50;;;;;;;47.33;17.13;;;;;;;6.46;68.88;99183.53;5049955;28;20182;-90
2023/12/11 01:54:19;;;;;;;48.30;15.10;;;;;;;6.48;68.70;99171.31;5012411;28;20676;-89
2023/12/11 01:56:46;;;;;;;40.00;15.30;;;;;;;6.61;68.45;99162.16;5010420;28;20614;-89
2023/12/11 01:59:13;;;;;;;39.93;13.47;;;;;;;6.64;68.68;99151.63;5010318;28;20254;-90
2023/12/11 02:01:41;;;;;;;42.20;14.33;;;;;;;6.69;68.67;99149.72;5009454;28;20256;-91
2023/12/11 02:04:08;;;;;;;41.73;15.47;;;;;;;6.78;68.53;99144.19;5013104;28;20187;-90
2023/12/11 02:06:34;;;;;;;41.40;14.47;;;;;;;6.89;68.48;99137.72;5013880;28;20186;-90
2023/12/11 02:09:00;;;;;;;38.03;13.37;;;;;;;6.94;68.28;99131.44;5013618;28;20206;-90
2023/12/11 02:13:53;;;;;;;35.67;13.30;;;;;;;6.99;67.31;99141.66;5073419;28;20267;-88
2023/12/11 02:16:18;;;;;;;37.93;15.00;;;;;;;7.02;67.51;99150.22;5076363;28;20181;-87
2023/12/11 02:18:44;;;;;;;40.63;13.63;;;;;;;6.93;66.70;99162.72;5076251;28;20173;-87
2023/12/11 02:21:11;;;;;;;33.87;14.73;;;;;;;6.97;66.88;99154.72;5075568;28;20177;-87
2023/12/11 02:23:58;;;;;;;34.93;12.67;;;;;;;6.96;66.67;99160.00;5076204;28;20185;-87
2023/12/11 02:26:24;;;;;;;30.43;12.50;;;;;;;6.92;66.35;99158.44;5076752;28;20596;-87
2023/12/11 02:28:49;;;;;;;40.57;14.87;;;;;;;6.90;66.16;99149.81;5075964;28;20197;-87
2023/12/11 02:31:15;;;;;;;34.17;12.60;;;;;;;6.81;66.47;99154.47;5076395;28;20200;-87
2023/12/11 02:33:41;;;;;;;41.47;14.33;;;;;;;6.85;66.36;99159.56;5076037;28;20241;-87
2023/12/11 02:36:07;;;;;;;31.17;14.33;;;;;;;6.85;66.39;99156.94;5074997;28;20642;-87
2023/12/11 02:38:32;;;;;;;34.17;14.10;;;;;;;6.70;66.39;99156.63;5076179;28;20170;-87
2023/12/11 02:40:58;;;;;;;31.30;11.97;;;;;;;6.73;66.04;99146.06;5075840;28;20181;-87
2023/12/11 02:43:23;;;;;;;35.40;13.47;;;;;;;6.74;66.67;99131.31;5075860;28;20264;-87
2023/12/11 02:45:49;;;;;;;28.27;10.90;;;;;;;6.75;66.47;99131.25;5076100;28;20177;-87
2023/12/11 02:48:15;;;;;;;33.00;11.60;;;;;;;6.78;66.37;99133.75;5074728;28;20689;-88
2023/12/11 02:50:41;;;;;;;33.80;10.93;;;;;;;6.82;65.71;99134.47;5075969;28;20551;-87
2023/12/11 02:53:07;;;;;;;33.23;13.50;;;;;;;6.81;65.85;99143.22;5075756;28;20238;-87
2023/12/11 02:55:32;;;;;;;29.60;10.07;;;;;;;6.74;65.81;99139.13;5075559;28;20216;-87
2023/12/11 02:57:59;;;;;;;26.33;10.40;;;;;;;6.65;65.87;99134.25;5075862;28;20201;-87
2023/12/11 03:00:26;;;;;;;39.47;13.30;;;;;;;6.67;66.67;99141.13;5075529;28;20252;-87
2023/12/11 03:02:51;;;;;;;36.00;11.83;;;;;;;6.70;66.16;99141.00;5075484;28;20238;-87
2023/12/11 03:05:17;;;;;;;33.83;11.53;;;;;;;6.72;66.54;99149.59;5075752;28;20185;-88
2023/12/11 03:07:43;;;;;;;32.10;11.37;;;;;;;6.63;66.29;99156.91;5075836;28;20564;-87
2023/12/11 03:10:09;;;;;;;32.53;12.03;;;;;;;6.70;66.11;99161.84;5075412;28;20173;-87
2023/12/11 03:12:35;;;;;;;27.37;10.90;;;;;;;6.72;65.89;99160.03;5075719;28;20337;-87
2023/12/11 03:15:01;;;;;;;28.07;10.63;;;;;;;6.79;66.08;99158.88;5090239;28;20165;-87
2023/12/11 03:17:27;;;;;;;29.33;10.77;;;;;;;6.83;66.06;99170.03;5074264;28;20173;-87
2023/12/11 03:19:53;;;;;;;26.10;9.90;;;;;;;6.84;65.97;99169.13;5091061;28;20192;-87
2023/12/11 03:22:19;;;;;;;34.47;11.47;;;;;;;6.80;65.90;99158.00;5075183;28;20174;-87
2023/12/11 03:24:44;;;;;;;29.70;11.37;;;;;;;6.81;66.17;99167.47;5075077;28;20187;-87
2023/12/11 03:27:10;;;;;;;25.67;10.23;;;;;;;6.87;64.81;99158.59;5074964;28;20204;-87
2023/12/11 03:29:36;;;;;;;27.13;11.20;;;;;;;6.76;65.32;99156.38;5075088;28;20173;-87
2023/12/11 03:32:01;;;;;;;37.57;13.00;;;;;;;6.73;65.75;99161.69;5074977;28;20201;-87
2023/12/11 03:34:27;;;;;;;27.70;11.23;;;;;;;6.59;66.24;99178.75;5075454;28;20177;-87
2023/12/11 03:36:52;;;;;;;32.10;11.37;;;;;;;6.57;66.80;99181.41;5073873;28;20185;-87
2023/12/11 03:39:18;;;;;;;26.27;12.03;;;;;;;6.50;66.54;99181.69;5075374;28;20181;-88
2023/12/11 03:41:44;;;;;;;27.63;11.70;;;;;;;6.24;67.61;99182.56;5074793;28;20654;-87
2023/12/11 03:44:10;;;;;;;32.67;12.63;;;;;;;6.24;67.81;99182.56;5074699;28;20193;-87
2023/12/11 03:46:35;;;;;;;27.77;11.30;;;;;;;6.16;67.85;99180.25;5075016;28;20173;-88
2023/12/11 03:49:01;;;;;;;30.53;10.67;;;;;;;6.28;68.12;99178.97;5075133;28;20211;-87
2023/12/11 03:51:26;;;;;;;33.90;13.03;;;;;;;6.34;67.98;99178.75;5074857;28;20169;-87
2023/12/11 03:53:52;;;;;;;27.20;11.00;;;;;;;6.44;67.30;99198.38;5075090;28;20173;-87
2023/12/11 03:56:18;;;;;;;41.17;12.83;;;;;;;6.37;67.52;99194.25;5074522;28;20185;-87
2023/12/11 03:58:43;;;;;;;29.10;11.37;;;;;;;6.37;68.61;99204.69;5074397;28;20180;-87
2023/12/11 04:01:09;;;;;;;31.00;10.97;;;;;;;6.44;67.92;99200.97;5074925;28;20264;-87
2023/12/11 04:03:34;;;;;;;37.83;12.37;;;;;;;6.41;68.36;99203.69;5074643;28;20683;-87
2023/12/11 04:06:00;;;;;;;32.77;11.20;;;;;;;6.32;68.42;99201.38;5074548;28;20250;-87
2023/12/11 04:08:26;;;;;;;25.60;10.37;;;;;;;5.99;68.96;99212.94;5074184;28;20201;-87
2023/12/11 04:10:52;;;;;;;29.50;11.23;;;;;;;5.90;69.36;99210.63;5073284;28;20631;-87
2023/12/11 04:13:17;;;;;;;25.37;11.37;;;;;;;5.87;69.38;99197.75;5065612;28;20197;-86
2023/12/11 04:15:43;;;;;;;20.10;9.00;;;;;;;5.87;69.94;99197.75;5070197;28;20181;-87
2023/12/11 04:18:10;;;;;;;23.17;10.53;;;;;;;5.90;70.05;99198.47;5054117;28;20170;-87
2023/12/11 04:20:35;;;;;;;27.40;11.20;;;;;;;5.99;69.42;99192.13;5061303;28;20185;-87
2023/12/11 04:23:01;;;;;;;25.63;10.17;;;;;;;6.01;70.17;99198.13;5073881;28;20626;-88
2023/12/11 04:25:28;;;;;;;28.73;10.93;;;;;;;5.69;70.52;99200.88;5073877;28;20181;-88
2023/12/11 04:27:53;;;;;;;24.30;10.80;;;;;;;5.69;71.00;99198.28;5072207;28;20208;-87
2023/12/11 04:30:20;;;;;;;22.90;10.67;;;;;;;5.73;71.07;99205.09;5073822;28;20325;-88
2023/12/11 04:32:46;;;;;;;27.57;12.17;;;;;;;5.78;70.82;99211.00;5074058;28;20185;-87
2023/12/11 04:35:12;;;;;;;31.93;12.37;;;;;;;5.94;70.92;99214.84;5073836;28;20203;-88
2023/12/11 04:37:39;;;;;;;28.47;13.43;;;;;;;5.90;70.68;99214.09;5072529;28;20193;-88
2023/12/11 04:40:05;;;;;;;25.97;11.30;;;;;;;5.96;70.44;99208.69;5072947;28;20193;-88
2023/12/11 04:42:32;;;;;;;31.30;10.27;;;;;;;5.86;70.76;99215.09;5094386;28;20176;-88
2023/12/11 04:44:58;;;;;;;27.47;11.47;;;;;;;5.63;71.80;99221.88;5093754;28;20207;-87
2023/12/11 04:47:24;;;;;;;29.63;11.57;;;;;;;5.84;71.34;99226.41;5093670;28;20221;-88
2023/12/11 04:49:51;;;;;;;28.50;11.53;;;;;;;5.96;71.39;99218.25;5093725;28;20176;-88
2023/12/11 04:52:17;;;;;;;35.33;13.30;;;;;;;6.08;70.82;99217.81;5093730;28;20172;-87
2023/12/11 04:54:42;;;;;;;31.07;11.83;;;;;;;6.03;70.93;99211.91;5092069;28;20181;-88
2023/12/11 04:57:08;;;;;;;28.57;11.77;;;;;;;5.97;70.51;99212.16;5089016;28;20245;-87
2023/12/11 04:59:33;;;;;;;40.63;10.90;;;;;;;6.03;70.60;99204.97;5092775;28;20260;-88
2023/12/11 05:02:00;;;;;;;36.70;12.07;;;;;;;6.03;70.42;99209.31;5092586;28;20187;-88
2023/12/11 05:04:27;;;;;;;37.17;11.33;;;;;;;5.86;70.99;99209.03;5092995;28;20214;-87
2023/12/11 05:06:54;;;;;;;28.83;12.73;;;;;;;5.94;70.79;99214.84;5093799;28;20662;-87
2023/12/11 05:09:19;;;;;;;34.57;12.47;;;;;;;5.98;70.44;99224.22;5093282;28;20196;-87
2023/12/11 05:11:46;;;;;;;35.87;12.33;;;;;;;6.04;71.02;99219.69;5093253;28;20164;-87
2023/12/11 05:14:13;;;;;;;32.70;12.30;;;;;;;6.03;70.46;99209.31;5093137;28;20273;-87
2023/12/11 05:16:38;;;;;;;31.73;11.63;;;;;;;6.09;70.28;99212.59;5092852;28;20186;-88
2023/12/11 05:19:05;;;;;;;33.30;11.83;;;;;;;6.17;69.91;99212.31;5093614;28;20176;-87
2023/12/11 05:21:31;;;;;;;38.60;13.13;;;;;;;6.21;69.70;99213.91;5093115;28;20169;-87
2023/12/11 05:23:57;;;;;;;25.03;10.47;;;;;;;6.29;69.98;99211.91;5092781;28;20181;-88
2023/12/11 05:26:24;;;;;;;32.93;12.10;;;;;;;6.29;69.86;99222.31;5091667;28;20173;-88
2023/12/11 05:28:51;;;;;;;28.60;11.43;;;;;;;6.26;70.06;99222.44;5091256;28;20602;-87
2023/12/11 05:31:17;;;;;;;30.17;10.53;;;;;;;6.30;69.93;99231.84;5091167;28;20187;-87
2023/12/11 05:33:44;;;;;;;27.63;11.00;;;;;;;6.25;69.28;99236.34;5091389;28;20176;-87
2023/12/11 05:36:11;;;;;;;25.13;10.00;;;;;;;6.31;69.52;99241.34;5090866;28;20260;-88
2023/12/11 05:38:36;;;;;;;30.60;11.93;;;;;;;6.26;69.18;99243.25;5094254;28;20183;-87
2023/12/11 05:41:04;;;;;;;28.03;11.57;;;;;;;6.21;69.39;99239.09;5097352;28;20247;-87
2023/12/11 05:43:30;;;;;;;29.73;11.60;;;;;;;6.14;69.56;99243.66;5097830;28;20173;-88
2023/12/11 05:45:56;;;;;;;28.03;11.20;;;;;;;6.19;69.48;99245.19;5097007;28;20176;-87
2023/12/11 05:48:23;;;;;;;30.93;10.10;;;;;;;6.19;69.60;99242.59;5097111;28;20216;-87
2023/12/11 05:50:50;;;;;;;34.87;10.97;;;;;;;6.22;69.42;99246.00;5097706;28;20233;-87
2023/12/11 05:53:17;;;;;;;34.57;12.00;;;;;;;6.23;69.27;99248.56;5096787;28;20212;-87
2023/12/11 05:55:44;;;;;;;30.57;10.83;;;;;;;6.27;69.84;99244.09;5097388;28;20584;-87
2023/12/11 05:58:09;;;;;;;37.90;14.57;;;;;;;6.28;69.34;99249.25;5078695;28;20530;-88
2023/12/11 06:00:36;;;;;;;41.13;15.93;;;;;;;6.29;69.37;99243.13;5096034;28;20181;-87
2023/12/11 06:03:02;;;;;;;33.00;11.47;;;;;;;6.28;69.70;99251.00;5097522;28;20525;-87
2023/12/11 06:05:28;;;;;;;29.20;10.90;;;;;;;6.07;69.56;99242.16;5096916;28;20187;-87
2023/12/11 06:07:55;;;;;;;28.20;11.10;;;;;;;6.07;70.15;99245.63;5096682;28;20203;-88
2023/12/11 06:10:21;;;;;;;32.57;11.57;;;;;;;6.12;70.46;99245.47;5097168;28;20283;-88
2023/12/11 06:12:46;;;;;;;38.47;12.20;;;;;;;6.14;70.33;99252.31;5096591;28;20697;-88
2023/12/11 06:15:12;;;;;;;30.53;10.53;;;;;;;6.17;69.85;99254.81;5096425;28;20266;-88
2023/12/11 06:17:39;;;;;;;29.73;10.17;;;;;;;6.25;69.83;99257.16;5096373;28;20169;-87
2023/12/11 06:20:05;;;;;;;26.43;10.13;;;;;;;6.26;69.49;99263.22;5096331;28;20238;-88
2023/12/11 06:22:32;;;;;;;24.37;9.13;;;;;;;6.33;69.33;99265.56;5096855;28;20164;-88
2023/12/11 06:24:59;;;;;;;21.57;8.83;;;;;;;6.38;69.50;99263.66;5096411;28;20172;-88
2023/12/11 06:27:27;;;;;;;30.60;10.73;;;;;;;6.44;69.26;99257.41;5096320;28;20530;-87
2023/12/11 06:29:55;;;;;;;23.23;10.00;;;;;;;6.49;69.27;99256.34;5095535;28;20172;-88
2023/12/11 06:32:22;;;;;;;29.87;10.10;;;;;;;6.47;69.00;99252.91;5096360;28;20521;-87
2023/12/11 06:34:49;;;;;;;24.53;10.70;;;;;;;6.40;68.95;99251.44;5096364;28;20305;-88
2023/12/11 06:37:15;;;;;;;31.27;11.03;;;;;;;6.40;69.22;99251.44;5096705;28;20233;-88
2023/12/11 06:39:41;;;;;;;33.40;11.13;;;;;;;6.51;68.80;99251.94;5096331;28;20582;-87
2023/12/11 06:42:08;;;;;;;26.33;10.73;;;;;;;6.53;68.85;99241.44;5096194;28;20198;-87
2023/12/11 06:44:35;;;;;;;32.87;12.10;;;;;;;6.58;69.37;99239.53;5077831;28;20177;-88
2023/12/11 06:47:02;;;;;;;31.57;12.30;;;;;;;6.55;69.28;99253.50;5096110;28;20241;-88
2023/12/11 06:49:29;;;;;;;27.83;10.23;;;;;;;6.64;69.15;99240.19;5094588;28;20289;-88
2023/12/11 06:51:56;;;;;;;20.23;9.80;;;;;;;6.68;68.77;99248.75;5078339;28;20619;-88
2023/12/11 06:54:23;;;;;;;30.33;10.33;;;;;;;6.73;68.79;99242.44;5095756;28;20214;-88
2023/12/11 06:56:50;;;;;;;24.27;9.33;;;;;;;6.69;68.27;99238.28;5078346;28;20275;-88
2023/12/11 06:59:17;;;;;;;30.80;10.33;;;;;;;6.78;68.60;99248.38;5096401;28;20160;-88
2023/12/11 07:01:43;;;;;;;25.07;11.17;;;;;;;6.81;68.94;99245.63;5095727;28;20241;-87
2023/12/11 07:04:10;;;;;;;30.90;10.33;;;;;;;6.75;68.33;99245.88;5096033;28;20168;-87
2023/12/11 07:06:38;;;;;;;35.07;10.67;;;;;;;6.74;68.58;99259.78;5095808;28;20180;-87
2023/12/11 07:09:04;;;;;;;33.13;11.60;;;;;;;6.73;68.65;99247.66;5094907;28;20277;-87
2023/12/11 07:11:31;;;;;;;30.07;11.40;;;;;;;6.80;69.11;99245.69;5095670;28;20251;-87
2023/12/11 07:13:58;;;;;;;30.87;9.97;;;;;;;6.86;68.37;99244.63;5094208;28;20691;-87
2023/12/11 07:16:25;;;;;;;29.57;10.40;;;;;;;6.89;68.66;99245.38;5077715;28;20196;-88
2023/12/11 07:18:52;;;;;;;33.57;11.47;;;;;;;6.91;68.68;99258.34;5095831;28;20168;-88
2023/12/11 07:21:18;;;;;;;28.87;10.63;;;;;;;6.92;68.69;99260.06;5075198;28;20170;-88
2023/12/11 07:23:48;;;;;;;27.90;9.60;;;;;;;6.94;67.97;99271.28;5086768;28;20680;-88
2023/12/11 07:26:15;;;;;;;24.80;10.23;;;;;;;6.92;67.98;99260.06;5094729;28;20183;-87
2023/12/11 07:28:41;;;;;;;27.43;9.43;;;;;;;6.88;68.63;99259.31;5095521;28;20215;-88
2023/12/11 07:31:08;;;;;;;22.93;8.47;;;;;;;6.87;68.58;99256.75;5077399;28;20184;-88
2023/12/11 07:33:35;;;;;;;23.63;8.10;;;;;;;6.76;68.61;99268.41;5077447;28;20616;-87
2023/12/11 07:36:01;;;;;;;20.67;7.30;;;;;;;6.67;68.72;99271.34;5095688;28;20331;-88
2023/12/11 07:38:28;;;;;;;22.97;8.33;;;;;;;6.80;69.19;99271.75;5095685;28;20248;-88
2023/12/11 07:40:56;;;;;;;24.43;8.80;;;;;;;7.02;69.05;99271.84;5077264;28;20173;-88
2023/12/11 07:43:23;;;;;;;16.67;8.03;;;;;;;7.10;68.94;99265.44;5094900;28;20176;-87
2023/12/11 07:45:51;;;;;;;20.00;8.07;;;;;;;7.12;68.40;99271.47;5095245;28;20242;-88
2023/12/11 07:48:17;;;;;;;21.83;8.73;;;;;;;7.20;68.27;99284.22;5076880;28;20288;-88
2023/12/11 07:50:43;;;;;;;26.13;10.37;;;;;;;7.27;67.85;99277.84;5095223;28;20666;-88
2023/12/11 07:53:09;;;;;;;25.00;8.97;;;;;;;7.28;67.80;99274.34;5076428;28;20177;-88
2023/12/11 07:55:36;;;;;;;29.70;10.20;;;;;;;7.18;67.42;99268.59;5094153;28;20172;-87
2023/12/11 07:58:03;;;;;;;30.97;10.47;;;;;;;7.18;68.07;99260.78;5094780;28;20174;-87
2023/12/11 08:00:29;;;;;;;28.87;10.57;;;;;;;7.28;67.81;99264.78;5094345;28;20174;-88
2023/12/11 08:02:55;;;;;;;29.93;11.23;;;;;;;7.36;68.17;99272.31;5094750;28;20668;-88
2023/12/11 08:05:20;;;;;;;27.00;11.37;;;;;;;7.41;67.63;99266.03;5094445;28;20176;-88
2023/12/11 08:07:46;;;;;;;27.20;10.87;;;;;;;7.37;67.37;99268.78;5094151;28;20208;-89
2023/12/11 08:10:12;;;;;;;27.00;9.00;;;;;;;7.33;67.23;99275.88;5076865;28;20649;-89
2023/12/11 08:12:38;;;;;;;27.67;9.73;;;;;;;7.21;67.87;99263.28;5094446;28;20224;-88
2023/12/11 08:15:05;;;;;;;30.07;10.27;;;;;;;7.12;68.19;99258.44;5094789;28;20200;-88
2023/12/11 08:17:31;;;;;;;29.10;9.70;;;;;;;7.12;68.41;99265.38;5094317;28;20173;-88
2023/12/11 08:19:58;;;;;;;25.70;8.77;;;;;;;7.11;68.15;99259.31;5094019;28;20184;-88
2023/12/11 08:22:24;;;;;;;27.17;9.83;;;;;;;6.92;69.03;99255.66;5076242;28;20184;-88
2023/12/11 08:24:51;;;;;;;24.87;10.33;;;;;;;6.95;69.00;99257.31;5093255;28;20250;-87
2023/12/11 08:27:17;;;;;;;24.33;9.87;;;;;;;6.93;69.04;99249.56;5094052;28;20263;-88
2023/12/11 08:29:46;;;;;;;21.80;7.93;;;;;;;6.78;69.07;99253.59;5093833;28;20188;-88
2023/12/11 08:32:12;;;;;;;21.23;8.80;;;;;;;6.72;69.91;99250.34;5094220;28;20205;-87
2023/12/11 08:34:37;;;;;;;18.17;7.30;;;;;;;6.87;69.81;99252.38;5094171;28;20207;-87
2023/12/11 08:37:04;;;;;;;23.77;8.50;;;;;;;6.97;70.27;99253.75;5093719;28;20627;-87
2023/12/11 08:39:30;;;;;;;23.37;8.77;;;;;;;7.10;69.93;99243.75;5093925;28;20184;-87
2023/12/11 08:41:57;;;;;;;20.33;7.47;;;;;;;7.11;69.01;99253.25;5076102;28;20525;-88
2023/12/11 08:44:24;;;;;;;22.70;10.17;;;;;;;6.92;69.74;99247.84;5094795;28;20177;-88
2023/12/11 08:46:51;;;;;;;33.37;11.83;;;;;;;7.08;70.26;99245.53;5075443;28;20180;-88
2023/12/11 08:49:18;;;;;;;25.80;9.37;;;;;;;7.00;69.66;99244.97;5093691;28;20191;-88
2023/12/11 08:51:45;;;;;;;26.60;9.43;;;;;;;7.00;70.27;99247.56;5094137;28;20173;-88
2023/12/11 08:54:10;;;;;;;22.20;7.90;;;;;;;7.08;70.46;99242.94;5093361;28;20614;-88
2023/12/11 08:56:37;;;;;;;28.50;9.70;;;;;;;6.89;70.48;99244.53;5093767;28;20174;-88
2023/12/11 08:59:04;;;;;;;22.63;9.83;;;;;;;7.04;70.37;99225.72;5093852;28;20627;-88
2023/12/11 09:01:34;;;;;;;29.13;10.90;;;;;;;7.23;70.45;99224.16;5093551;28;20628;-88
2023/12/11 09:04:00;;;;;;;21.20;9.33;;;;;;;7.20;70.02;99217.28;5093323;28;20173;-88
2023/12/11 09:06:25;;;;;;;23.90;9.87;;;;;;;7.18;70.34;99213.03;5093541;28;20181;-88
2023/12/11 09:08:52;;;;;;;26.00;8.90;;;;;;;7.21;70.40;99215.50;5075756;28;20231;-87
2023/12/11 09:11:17;;;;;;;27.13;10.17;;;;;;;7.31;70.39;99214.28;5093057;28;20173;-88
2023/12/11 09:13:44;;;;;;;34.20;10.37;;;;;;;7.53;69.75;99225.56;5092372;28;20201;-88
2023/12/11 09:16:11;;;;;;;28.17;9.10;;;;;;;7.69;69.75;99218.84;5093448;28;20164;-88
2023/12/11 09:18:38;;;;;;;25.23;7.80;;;;;;;7.77;69.22;99216.78;5093340;28;20175;-88
2023/12/11 09:21:04;;;;;;;28.30;9.50;;;;;;;7.73;69.44;99219.59;5093985;28;20193;-88
2023/12/11 09:23:30;;;;;;;21.90;9.80;;;;;;;7.84;68.98;99219.97;5075507;28;20639;-88
2023/12/11 09:25:57;;;;;;;18.10;7.83;;;;;;;7.86;68.47;99219.00;5093088;28;20654;-88
2023/12/11 09:28:23;;;;;;;21.70;8.80;;;;;;;7.99;68.17;99207.16;5093121;28;20658;-88
2023/12/11 09:30:49;;;;;;;19.67;7.77;;;;;;;7.85;67.97;99214.72;5093212;28;20177;-88
2023/12/11 09:33:15;;;;;;;21.80;7.27;;;;;;;7.67;68.56;99218.06;5093181;28;20251;-88
2023/12/11 09:35:42;;;;;;;22.20;8.23;;;;;;;7.66;68.69;99215.50;5075438;28;20176;-88
2023/12/11 09:38:09;;;;;;;24.87;8.77;;;;;;;7.72;68.42;99210.03;5093199;28;20227;-89
2023/12/11 09:40:35;;;;;;;23.73;7.53;;;;;;;7.71;68.52;99214.41;5075283;28;20188;-88
2023/12/11 09:43:03;;;;;;;20.97;7.97;;;;;;;7.79;68.83;99206.28;5093198;28;20247;-88
2023/12/11 09:45:31;;;;;;;22.63;8.10;;;;;;;7.77;68.27;99205.50;5093521;28;20232;-88
2023/12/11 09:47:58;;;;;;;16.80;8.00;;;;;;;7.84;68.40;99207.78;5074659;28;20196;-88
2023/12/11 09:50:25;;;;;;;24.47;7.77;;;;;;;7.96;68.31;99207.31;5093427;28;20168;-88
2023/12/11 09:52:53;;;;;;;19.90;8.00;;;;;;;8.16;68.09;99213.44;5093237;28;20199;-88
2023/12/11 09:55:19;;;;;;;22.50;7.53;;;;;;;8.14;67.75;99208.31;5093055;28;20178;-88
2023/12/11 09:57:46;;;;;;;20.87;8.17;;;;;;;8.20;67.41;99212.44;5093064;28;20175;-88
2023/12/11 10:00:13;;;;;;;24.10;8.73;;;;;;;8.15;67.29;99209.16;5093090;28;20231;-88
2023/12/11 10:02:40;;;;;;;19.43;8.10;;;;;;;8.00;68.16;99203.66;5093312;28;20208;-89
2023/12/11 10:05:09;;;;;;;15.27;7.13;;;;;;;7.77;68.45;99206.34;5075145;28;20635;-88
2023/12/11 10:07:42;;;;;;;18.07;7.97;;;;;;;7.91;68.36;99204.00;5092811;28;20187;-88
2023/12/11 10:10:27;;;;;;;17.17;7.50;;;;;;;8.10;68.40;99185.84;5092754;28;20190;-88
2023/12/11 10:12:56;;;;;;;13.80;5.83;;;;;;;8.17;67.40;99189.91;5092483;28;20188;-89
2023/12/11 10:15:26;;;;;;;13.90;5.80;;;;;;;8.20;67.51;99188.94;5093205;28;20492;-88
2023/12/11 10:18:09;;;;;;;11.80;5.43;;;;;;;8.25;66.86;99177.38;5092606;28;20187;-88
2023/12/11 10:20:36;;;;;;;13.93;6.07;;;;;;;8.21;66.92;99180.16;5093102;28;20200;-88
2023/12/11 10:23:16;;;;;;;13.77;5.50;;;;;;;8.26;67.03;99183.44;5075032;28;20691;-88
2023/12/11 10:25:48;;;;;;;15.13;6.23;;;;;;;8.39;66.96;99182.03;5079171;28;20332;-88
2023/12/11 10:28:17;;;;;;;16.47;6.73;;;;;;;8.59;67.07;99176.81;5078644;28;20188;-88
2023/12/11 10:30:59;;;;;;;21.97;7.63;;;;;;;8.74;67.32;99176.13;5096084;28;20191;-89
2023/12/11 10:33:32;;;;;;;15.60;6.80;;;;;;;8.88;66.67;99178.13;5078546;28;20686;-89
2023/12/11 10:36:12;;;;;;;14.33;6.10;;;;;;;9.05;65.98;99171.19;5096466;28;20176;-89
2023/12/11 10:41:51;;;;;;;15.30;7.30;;;;;;;9.38;65.20;99165.34;5096286;28;20630;-89
2023/12/11 10:44:26;;;;;;;16.10;5.87;;;;;;;9.56;64.95;99167.94;5096920;28;20173;-90
2023/12/11 10:46:56;;;;;;;14.03;5.43;;;;;;;9.47;63.85;99173.59;5079553;28;20160;-89
2023/12/11 10:49:23;;;;;;;12.70;6.07;;;;;;;9.70;63.60;99164.63;5077590;28;20208;-89
2023/12/11 10:51:50;;;;;;;14.40;6.47;;;;;;;9.89;62.85;99154.94;5078420;28;20184;-89
2023/12/11 10:54:17;;;;;;;16.77;7.80;;;;;;;9.98;62.52;99154.50;5078247;28;20176;-89
2023/12/11 10:56:45;;;;;;;16.47;7.50;;;;;;;9.72;62.04;99157.56;5095823;28;20176;-88
2023/12/11 10:59:16;;;;;;;17.80;8.03;;;;;;;9.67;62.39;99152.53;5078081;28;20169;-89
2023/12/11 11:01:46;;;;;;;15.83;7.80;;;;;;;9.72;63.04;99144.47;5095848;28;20165;-90
2023/12/11 11:04:14;;;;;;;17.50;8.27;;;;;;;9.86;63.11;99140.25;5078146;28;20339;-89
2023/12/11 11:06:50;;;;;;;19.20;9.13;;;;;;;10.01;63.45;99137.78;5078055;28;20176;-89
2023/12/11 11:09:43;;;;;;;21.53;10.13;;;;;;;10.23;62.63;99133.19;5057901;28;20281;-89
2023/12/11 11:12:34;;;;;;;17.30;7.80;;;;;;;10.58;62.28;99124.34;5035084;28;20193;-89
2023/12/11 11:15:01;;;;;;;18.87;9.80;;;;;;;10.75;60.82;99112.94;5076112;28;20668;-89
2023/12/11 11:18:02;;;;;;;16.50;7.93;;;;;;;10.73;61.11;99096.47;5057678;28;20272;-89
2023/12/11 11:20:35;;;;;;;20.20;8.83;;;;;;;10.84;60.90;99094.13;5088497;28;20217;-89
2023/12/11 11:23:21;;;;;;;19.97;8.90;;;;;;;11.15;60.46;99078.38;5095929;28;20184;-90
2023/12/11 11:25:53;;;;;;;20.23;9.10;;;;;;;11.21;59.91;99077.19;5077732;28;20704;-90
2023/12/11 11:29:15;;;;;;;16.97;9.00;;;;;;;11.46;60.01;99067.84;5095588;28;20666;-90
2023/12/11 11:32:11;;;;;;;21.93;9.97;;;;;;;11.48;57.96;99065.97;5095256;28;20164;-90
2023/12/11 11:34:45;;;;;;;25.50;11.10;;;;;;;11.35;58.20;99066.75;5103922;28;20194;-89